Time;durP1;ratioP1;P1;durP2;ratioP2;P2;SDS_P1;SDS_P2;PMS_P1;PMS_P2;Temp;Humidity;BMP_temperature;BMP_pressure;BME280_temperature;BME280_humidity;BME280_pressure;Samples;Min_cycle;Max_cycle;Signal;HPM_P1;HPM_P2
2023/03/31 00:00:27;;;;;;;21.67;3.60;;;10.30;99.90;;;;;;4982181;28;20387;-78
2023/03/31 00:02:53;;;;;;;29.25;3.80;;;10.30;99.90;;;;;;4983647;28;20041;-80
2023/03/31 00:05:20;;;;;;;27.63;3.33;;;10.30;99.90;;;;;;4983256;28;20026;-79
2023/03/31 00:07:48;;;;;;;26.15;3.20;;;10.30;99.90;;;;;;4987849;28;20135;-79
2023/03/31 00:10:14;;;;;;;22.77;2.95;;;10.30;99.90;;;;;;4980821;28;20446;-79
2023/03/31 00:12:39;;;;;;;26.70;3.78;;;10.30;99.90;;;;;;4986845;28;20731;-78
2023/03/31 00:15:06;;;;;;;27.88;3.95;;;10.40;99.90;;;;;;4984893;28;20022;-78
2023/03/31 00:17:34;;;;;;;33.40;3.85;;;10.40;99.90;;;;;;4987266;28;20541;-79
2023/03/31 00:20:03;;;;;;;29.33;3.80;;;10.40;99.90;;;;;;4987440;28;20034;-79
2023/03/31 00:22:29;;;;;;;33.15;4.35;;;10.40;99.90;;;;;;4987381;28;20030;-80
2023/03/31 00:24:54;;;;;;;29.90;4.15;;;10.40;99.90;;;;;;4987281;28;20034;-78
2023/03/31 00:27:20;;;;;;;35.70;3.70;;;10.40;99.90;;;;;;4988041;28;20026;-80
2023/03/31 00:29:46;;;;;;;33.33;4.45;;;10.40;99.90;;;;;;4983966;28;20041;-78
2023/03/31 00:32:13;;;;;;;28.50;3.88;;;10.40;99.90;;;;;;4969196;28;20070;-78
2023/03/31 00:34:39;;;;;;;29.25;3.70;;;10.40;99.90;;;;;;4987668;28;20390;-79
2023/03/31 00:37:05;;;;;;;25.40;3.80;;;10.40;99.90;;;;;;4970803;28;20041;-79
2023/03/31 00:39:34;;;;;;;29.45;4.50;;;10.40;99.90;;;;;;4986776;28;20030;-78
2023/03/31 00:42:02;;;;;;;26.38;3.22;;;10.40;99.90;;;;;;4988190;28;20045;-80
2023/03/31 00:44:29;;;;;;;29.08;3.53;;;10.40;99.90;;;;;;4982968;28;20026;-79
2023/03/31 00:47:09;;;;;;;26.63;4.20;;;10.40;99.90;;;;;;4985867;28;20785;-80
2023/03/31 00:49:43;;;;;;;27.48;4.05;;;10.40;99.90;;;;;;4987581;28;20049;-79
2023/03/31 00:52:23;;;;;;;34.20;4.13;;;10.40;99.90;;;;;;4970990;28;20046;-79
2023/03/31 00:54:54;;;;;;;24.98;3.38;;;10.40;99.90;;;;;;4971745;28;20756;-80
2023/03/31 00:57:22;;;;;;;37.05;4.95;;;10.40;99.90;;;;;;4988408;28;20030;-80
2023/03/31 00:59:52;;;;;;;37.85;5.22;;;10.40;99.90;;;;;;4973962;28;20101;-80
2023/03/31 01:02:21;;;;;;;30.95;4.32;;;10.50;99.90;;;;;;4989017;28;20117;-80
2023/03/31 01:05:00;;;;;;;43.47;5.93;;;10.50;99.90;;;;;;4969406;28;20066;-81
2023/03/31 01:07:33;;;;;;;42.05;5.20;;;10.50;99.90;;;;;;4988318;28;20541;-80
2023/03/31 01:10:01;;;;;;;37.72;5.22;;;10.50;99.90;;;;;;4988686;28;20057;-80
2023/03/31 01:12:26;;;;;;;38.33;5.30;;;10.50;99.90;;;;;;4980156;28;20037;-83
2023/03/31 01:14:53;;;;;;;35.50;4.75;;;10.50;99.90;;;;;;4989248;28;20108;-81
2023/03/31 01:17:21;;;;;;;27.73;4.05;;;10.50;99.90;;;;;;4988891;28;20033;-80
2023/03/31 01:20:00;;;;;;;27.30;3.80;;;10.50;99.90;;;;;;4988959;28;20098;-82
2023/03/31 01:22:44;;;;;;;32.50;5.50;;;10.60;99.90;;;;;;4974200;28;20094;-81
2023/03/31 01:25:22;;;;;;;29.50;5.25;;;10.60;99.90;;;;;;4988070;28;20030;-82
2023/03/31 01:28:23;;;;;;;46.67;6.60;;;10.50;99.90;;;;;;4990292;28;20049;-82
2023/03/31 01:31:37;;;;;;;31.10;4.15;;;10.50;99.90;;;;;;4984798;28;20492;-83
2023/03/31 01:34:30;;;;;;;45.30;5.32;;;10.50;99.90;;;;;;4954720;28;20097;-83
2023/03/31 01:37:13;;;;;;;36.25;4.13;;;10.50;99.90;;;;;;4971675;28;20023;-82
2023/03/31 01:40:08;;;;;;;32.70;4.40;;;10.50;99.90;;;;;;4989621;28;20042;-83
2023/03/31 01:42:41;;;;;;;27.00;4.20;;;10.50;99.90;;;;;;4932015;28;20521;-82
2023/03/31 01:45:36;;;;;;;19.13;2.72;;;10.50;99.90;;;;;;4980419;28;20085;-82
2023/03/31 01:48:17;;;;;;;27.25;4.15;;;10.50;99.90;;;;;;4978838;28;20126;-82
2023/03/31 01:50:50;;;;;;;40.70;4.65;;;10.50;99.90;;;;;;4976111;28;20109;-83
2023/03/31 01:53:42;;;;;;;37.10;4.90;;;10.50;99.90;;;;;;4989063;28;20030;-82
2023/03/31 01:56:40;;;;;;;31.70;4.35;;;10.50;99.90;;;;;;4976298;28;20117;-83
2023/03/31 01:59:26;;;;;;;38.45;4.22;;;10.50;99.90;;;;;;4970135;28;20153;-80
2023/03/31 02:02:16;;;;;;;47.97;5.47;;;10.50;99.90;;;;;;4989923;28;20038;-82
2023/03/31 02:04:55;;;;;;;41.38;5.15;;;10.40;99.90;;;;;;4930510;28;20046;-83
2023/03/31 02:07:33;;;;;;;49.60;5.28;;;10.40;99.90;;;;;;4969497;28;20483;-81
2023/03/31 02:10:03;;;;;;;47.67;5.07;;;10.40;99.90;;;;;;4981717;28;20480;-82
2023/03/31 02:12:32;;;;;;;45.85;6.07;;;10.50;99.90;;;;;;4970940;28;20045;-80
2023/03/31 02:15:01;;;;;;;53.53;5.07;;;10.40;99.90;;;;;;4975133;28;20114;-82
2023/03/31 02:17:31;;;;;;;46.30;4.63;;;10.50;99.90;;;;;;4985450;28;20097;-81
2023/03/31 02:20:00;;;;;;;34.33;4.15;;;10.50;99.90;;;;;;4978604;28;20067;-80
2023/03/31 02:22:30;;;;;;;44.83;5.05;;;10.50;99.90;;;;;;4969040;28;20387;-80
2023/03/31 02:24:59;;;;;;;48.35;6.70;;;10.50;99.90;;;;;;4978383;28;20533;-81
2023/03/31 02:27:33;;;;;;;60.97;6.53;;;10.50;99.90;;;;;;4986304;28;20093;-80
2023/03/31 02:29:59;;;;;;;45.00;5.03;;;10.50;99.90;;;;;;4982419;28;20030;-81
2023/03/31 02:32:34;;;;;;;63.15;6.78;;;10.50;99.90;;;;;;4984169;28;20034;-82
2023/03/31 02:35:00;;;;;;;48.42;5.97;;;10.50;99.90;;;;;;4974090;28;20113;-82
2023/03/31 02:37:28;;;;;;;53.90;6.00;;;10.50;99.90;;;;;;4985041;28;20045;-80
2023/03/31 02:39:56;;;;;;;53.08;6.82;;;10.50;99.90;;;;;;4981279;28;20035;-81
2023/03/31 02:42:22;;;;;;;56.55;6.35;;;10.50;99.90;;;;;;4982864;28;20072;-81
2023/03/31 02:44:48;;;;;;;49.42;5.70;;;10.50;99.90;;;;;;4987533;28;20034;-82
2023/03/31 02:47:16;;;;;;;55.05;8.23;;;10.50;99.90;;;;;;4968548;28;20686;-82
2023/03/31 02:49:46;;;;;;;53.30;6.38;;;10.50;99.90;;;;;;4970406;28;20080;-83
2023/03/31 02:52:33;;;;;;;70.63;7.73;;;10.50;99.90;;;;;;4987128;28;20050;-82
2023/03/31 02:55:02;;;;;;;64.57;7.40;;;10.50;99.90;;;;;;4970093;28;20287;-82
2023/03/31 02:57:38;;;;;;;59.45;6.90;;;10.50;99.90;;;;;;4985967;28;20053;-81
2023/03/31 03:00:13;;;;;;;52.47;8.02;;;10.50;99.90;;;;;;4977660;28;20443;-82
2023/03/31 03:03:10;;;;;;;55.40;6.38;;;10.50;99.90;;;;;;4986726;28;20034;-81
2023/03/31 03:05:48;;;;;;;64.18;6.72;;;10.50;99.90;;;;;;4968624;28;20375;-82
2023/03/31 03:08:35;;;;;;;52.03;6.05;;;10.50;99.90;;;;;;4951807;28;20495;-81
2023/03/31 03:11:30;;;;;;;56.92;7.47;;;10.50;99.90;;;;;;4986415;28;20813;-82
2023/03/31 03:13:55;;;;;;;59.75;7.30;;;10.50;99.90;;;;;;4976749;28;20126;-80
2023/03/31 03:16:31;;;;;;;62.55;6.88;;;10.50;99.90;;;;;;4983043;28;20153;-81
2023/03/31 03:18:58;;;;;;;53.47;6.15;;;10.50;99.90;;;;;;4969677;28;20030;-80
2023/03/31 03:21:23;;;;;;;61.00;7.43;;;10.40;99.90;;;;;;4983932;28;20494;-81
2023/03/31 03:23:50;;;;;;;43.28;6.68;;;10.40;99.90;;;;;;4950152;28;20029;-80
2023/03/31 03:26:20;;;;;;;52.55;7.35;;;10.40;99.90;;;;;;4959093;28;20060;-83
2023/03/31 03:28:46;;;;;;;55.88;7.57;;;10.40;99.90;;;;;;4993030;28;20030;-82
2023/03/31 03:31:12;;;;;;;47.72;5.80;;;10.30;99.90;;;;;;4981756;28;20027;-81
2023/03/31 03:33:38;;;;;;;50.25;5.90;;;10.30;99.90;;;;;;4992643;28;20030;-81
2023/03/31 03:36:04;;;;;;;63.35;7.00;;;10.30;99.90;;;;;;4974875;28;20129;-82
2023/03/31 03:38:29;;;;;;;47.15;5.53;;;10.30;99.90;;;;;;4993674;28;20030;-80
2023/03/31 03:40:55;;;;;;;57.33;6.20;;;10.30;99.90;;;;;;4992707;28;20027;-81
2023/03/31 03:43:21;;;;;;;51.03;7.20;;;10.20;99.90;;;;;;4973419;28;20525;-80
2023/03/31 03:45:51;;;;;;;51.05;7.32;;;10.20;99.90;;;;;;4964567;28;20577;-79
2023/03/31 03:48:17;;;;;;;56.33;6.38;;;10.20;99.90;;;;;;4978627;28;20080;-81
2023/03/31 03:50:44;;;;;;;48.53;6.60;;;10.10;99.90;;;;;;4985936;28;20109;-80
2023/03/31 03:53:10;;;;;;;52.80;7.28;;;10.10;99.90;;;;;;4986813;28;20031;-82
2023/03/31 03:55:35;;;;;;;69.47;7.22;;;10.10;99.90;;;;;;4979887;28;20625;-81
2023/03/31 03:58:01;;;;;;;63.60;7.60;;;10.10;99.90;;;;;;4968017;28;20645;-82
2023/03/31 04:00:27;;;;;;;57.42;7.00;;;10.10;99.90;;;;;;4976133;28;20026;-82
2023/03/31 04:02:52;;;;;;;58.28;6.88;;;10.10;99.90;;;;;;4987177;28;20045;-84
2023/03/31 04:05:18;;;;;;;64.30;7.82;;;10.10;99.90;;;;;;4986854;28;20038;-82
2023/03/31 04:07:43;;;;;;;62.58;7.20;;;10.10;99.90;;;;;;4982827;28;20833;-84
2023/03/31 04:10:09;;;;;;;54.90;6.85;;;10.10;99.90;;;;;;4985765;28;20037;-82
2023/03/31 04:12:35;;;;;;;61.58;7.18;;;10.20;99.90;;;;;;4981647;28;20562;-80
2023/03/31 04:15:01;;;;;;;67.60;7.18;;;10.20;99.90;;;;;;4971077;28;20030;-82
2023/03/31 04:17:33;;;;;;;54.42;6.97;;;10.10;99.90;;;;;;4986611;28;20181;-83
2023/03/31 04:20:17;;;;;;;69.70;7.63;;;10.10;99.90;;;;;;4983194;28;20054;-82
2023/03/31 04:22:46;;;;;;;47.05;6.95;;;10.10;99.90;;;;;;4986225;28;20035;-81
2023/03/31 04:25:15;;;;;;;52.95;7.30;;;10.10;99.90;;;;;;4985922;28;20034;-82
2023/03/31 04:27:49;;;;;;;64.32;7.55;;;10.10;99.90;;;;;;4967306;28;20156;-80
2023/03/31 04:30:21;;;;;;;53.70;6.45;;;10.00;99.90;;;;;;4971912;28;20062;-83
2023/03/31 04:32:52;;;;;;;61.28;7.65;;;10.00;99.90;;;;;;4988957;28;20042;-80
2023/03/31 04:35:19;;;;;;;70.83;6.80;;;10.10;99.90;;;;;;4979475;28;20582;-82
2023/03/31 04:37:46;;;;;;;50.03;6.20;;;10.10;99.90;;;;;;4986427;28;20479;-79
2023/03/31 04:40:12;;;;;;;59.30;5.85;;;10.00;99.90;;;;;;4985123;28;20499;-80
2023/03/31 04:42:38;;;;;;;50.55;5.68;;;10.00;99.90;;;;;;4985709;28;20030;-79
2023/03/31 04:45:04;;;;;;;72.47;7.90;;;10.00;99.90;;;;;;4969164;28;20041;-80
2023/03/31 04:47:30;;;;;;;59.13;6.03;;;10.00;99.90;;;;;;4973806;28;20038;-80
2023/03/31 04:49:55;;;;;;;63.42;6.93;;;10.00;99.90;;;;;;4952846;28;20402;-75
2023/03/31 04:52:21;;;;;;;45.53;6.05;;;9.90;99.90;;;;;;4985826;28;20047;-79
2023/03/31 04:54:47;;;;;;;53.03;6.85;;;9.90;99.90;;;;;;4988367;28;20042;-82
2023/03/31 04:57:12;;;;;;;56.00;6.45;;;9.90;99.90;;;;;;4972274;28;20030;-80
2023/03/31 04:59:38;;;;;;;50.53;6.80;;;9.90;99.90;;;;;;4969139;28;20058;-79
2023/03/31 05:02:04;;;;;;;56.95;6.70;;;9.90;99.90;;;;;;4969919;28;20039;-79
2023/03/31 05:04:29;;;;;;;60.42;6.88;;;9.90;99.90;;;;;;4957600;28;20486;-80
2023/03/31 05:06:55;;;;;;;48.42;7.18;;;9.90;99.90;;;;;;4965938;28;20047;-81
2023/03/31 05:09:21;;;;;;;59.22;7.22;;;9.90;99.90;;;;;;4969336;28;20034;-80
2023/03/31 05:11:46;;;;;;;53.70;6.78;;;9.90;99.90;;;;;;4968722;28;20478;-81
2023/03/31 05:14:12;;;;;;;64.63;6.65;;;9.90;99.90;;;;;;4967541;28;20462;-80
2023/03/31 05:16:38;;;;;;;54.15;7.18;;;9.90;99.90;;;;;;4964687;28;20034;-78
2023/03/31 05:19:03;;;;;;;54.20;5.68;;;9.90;99.90;;;;;;4967282;28;20086;-78
2023/03/31 05:21:30;;;;;;;56.20;6.07;;;9.90;99.90;;;;;;4957419;28;20031;-79
2023/03/31 05:23:56;;;;;;;46.50;5.82;;;9.80;99.90;;;;;;4966378;28;20431;-78
2023/03/31 05:26:24;;;;;;;49.38;6.57;;;9.80;99.90;;;;;;4950615;28;20039;-81
2023/03/31 05:28:50;;;;;;;51.95;5.50;;;9.80;99.90;;;;;;4967603;28;20062;-79
2023/03/31 05:31:17;;;;;;;41.85;5.60;;;9.80;99.90;;;;;;4965075;28;20042;-80
2023/03/31 05:33:42;;;;;;;44.22;5.72;;;9.80;99.90;;;;;;4967988;28;20038;-78
2023/03/31 05:36:10;;;;;;;52.92;5.32;;;9.80;99.90;;;;;;4967194;28;20204;-79
2023/03/31 05:38:35;;;;;;;47.63;6.00;;;9.80;99.90;;;;;;4969607;28;20463;-81
2023/03/31 05:41:01;;;;;;;55.20;7.35;;;9.80;99.90;;;;;;4966786;28;20069;-79
2023/03/31 05:43:27;;;;;;;50.95;5.82;;;9.80;99.90;;;;;;4969190;28;20479;-80
2023/03/31 05:45:52;;;;;;;56.65;5.38;;;9.80;99.90;;;;;;4965608;28;20041;-79
2023/03/31 05:48:18;;;;;;;53.22;5.97;;;9.80;99.90;;;;;;4964853;28;20042;-77
2023/03/31 05:50:44;;;;;;;47.67;5.38;;;9.80;99.90;;;;;;4949834;28;20041;-80
2023/03/31 05:53:09;;;;;;;50.58;6.25;;;9.80;99.90;;;;;;4966808;28;20495;-80
2023/03/31 05:55:36;;;;;;;68.20;8.18;;;9.80;99.90;;;;;;4968080;28;20037;-80
2023/03/31 05:58:01;;;;;;;81.95;9.25;;;9.80;99.90;;;;;;4954036;28;20054;-82
2023/03/31 06:00:27;;;;;;;74.32;9.60;;;9.90;99.90;;;;;;4966991;28;20747;-79
2023/03/31 06:02:53;;;;;;;70.55;7.05;;;9.90;99.90;;;;;;4957526;28;20043;-81
2023/03/31 06:05:18;;;;;;;70.50;7.45;;;9.90;99.90;;;;;;4956755;28;20031;-80
2023/03/31 06:07:44;;;;;;;76.10;8.07;;;9.90;99.90;;;;;;4961420;28;20395;-80
2023/03/31 06:10:09;;;;;;;58.95;7.65;;;9.90;99.90;;;;;;4954809;28;20073;-79
2023/03/31 06:12:35;;;;;;;62.15;7.43;;;9.90;99.90;;;;;;4957629;28;20074;-78
2023/03/31 06:15:02;;;;;;;59.65;6.07;;;9.90;99.90;;;;;;4961309;28;20550;-78
2023/03/31 06:17:28;;;;;;;71.63;6.63;;;9.90;99.90;;;;;;4964921;28;20034;-79
2023/03/31 06:19:53;;;;;;;53.63;5.93;;;9.90;99.90;;;;;;4968048;28;20034;-80
2023/03/31 06:22:19;;;;;;;43.67;6.47;;;9.80;99.90;;;;;;4968152;28;20057;-80
2023/03/31 06:24:45;;;;;;;45.78;5.32;;;9.80;99.90;;;;;;4963490;28;20538;-80
2023/03/31 06:27:11;;;;;;;61.67;6.55;;;9.80;99.90;;;;;;4961924;28;20038;-79
2023/03/31 06:29:36;;;;;;;51.55;5.97;;;9.80;99.90;;;;;;4961057;28;20108;-79
2023/03/31 06:32:03;;;;;;;52.05;6.82;;;9.80;99.90;;;;;;4956937;28;20049;-81
2023/03/31 06:34:29;;;;;;;60.40;6.75;;;9.90;99.90;;;;;;4963005;28;20030;-79
2023/03/31 06:36:55;;;;;;;54.47;6.47;;;9.90;99.90;;;;;;4963400;28;20035;-78
2023/03/31 06:39:21;;;;;;;38.17;5.65;;;9.90;99.90;;;;;;4968057;28;20027;-82
2023/03/31 06:41:46;;;;;;;52.20;6.28;;;9.90;99.90;;;;;;4966342;28;20030;-77
2023/03/31 06:44:15;;;;;;;54.58;6.38;;;9.90;99.90;;;;;;4968318;28;20039;-80
2023/03/31 06:46:41;;;;;;;57.88;6.00;;;10.00;99.90;;;;;;4969033;28;20820;-81
2023/03/31 06:49:06;;;;;;;49.90;6.50;;;10.00;99.90;;;;;;4968993;28;20035;-81
2023/03/31 06:51:32;;;;;;;50.05;6.97;;;10.00;99.90;;;;;;4965905;28;20117;-80
2023/03/31 06:53:58;;;;;;;52.70;5.35;;;10.00;99.90;;;;;;4963448;28;20624;-81
2023/03/31 06:56:23;;;;;;;54.17;7.30;;;10.10;99.90;;;;;;4947098;28;20125;-79
2023/03/31 06:58:49;;;;;;;49.03;6.45;;;10.10;99.90;;;;;;4965690;28;20057;-79
2023/03/31 07:01:16;;;;;;;57.15;6.50;;;10.10;99.90;;;;;;4961467;28;20086;-78
2023/03/31 07:03:41;;;;;;;57.47;7.13;;;10.20;99.90;;;;;;4974031;28;20121;-78
2023/03/31 07:06:07;;;;;;;60.50;6.95;;;10.20;99.90;;;;;;4975722;28;20033;-79
2023/03/31 07:08:33;;;;;;;54.05;7.28;;;10.20;99.90;;;;;;4983633;28;20075;-79
2023/03/31 07:10:59;;;;;;;60.97;7.47;;;10.20;99.90;;;;;;4984068;28;20093;-79
2023/03/31 07:13:26;;;;;;;53.47;7.00;;;10.20;99.90;;;;;;4975519;28;20054;-80
2023/03/31 07:15:52;;;;;;;55.25;7.55;;;10.20;99.90;;;;;;4977955;28;20026;-78
2023/03/31 07:18:18;;;;;;;55.90;6.55;;;10.10;99.90;;;;;;4977459;28;20042;-81
2023/03/31 07:20:47;;;;;;;61.30;6.57;;;10.10;99.90;;;;;;4978299;28;20106;-80
2023/03/31 07:23:13;;;;;;;48.08;6.57;;;10.10;99.90;;;;;;4982278;28;20042;-79
2023/03/31 07:25:38;;;;;;;53.13;6.28;;;10.20;99.90;;;;;;4974415;28;20041;-80
2023/03/31 07:28:05;;;;;;;54.88;6.57;;;10.20;99.90;;;;;;4984258;28;20034;-81
2023/03/31 07:30:31;;;;;;;54.92;6.35;;;10.20;99.90;;;;;;4961802;28;20037;-79
2023/03/31 07:32:57;;;;;;;55.90;6.13;;;10.20;99.90;;;;;;4958900;28;20034;-81
2023/03/31 07:35:23;;;;;;;52.45;6.70;;;10.20;99.90;;;;;;4984088;28;20030;-79
2023/03/31 07:37:49;;;;;;;42.17;6.65;;;10.20;99.90;;;;;;4984630;28;20030;-81
2023/03/31 07:40:21;;;;;;;45.10;5.88;;;10.20;99.90;;;;;;4964187;28;20107;-76
2023/03/31 07:42:47;;;;;;;47.38;5.75;;;10.30;99.90;;;;;;4976501;28;20043;-81
2023/03/31 07:45:15;;;;;;;46.58;6.75;;;10.30;99.90;;;;;;4982939;28;20090;-79
2023/03/31 07:47:41;;;;;;;42.28;5.38;;;10.30;99.90;;;;;;4984850;28;20030;-78
2023/03/31 07:50:08;;;;;;;49.70;6.30;;;10.20;99.90;;;;;;4967669;28;20037;-77
2023/03/31 07:52:33;;;;;;;56.53;6.00;;;10.20;99.90;;;;;;4983899;28;20137;-79
2023/03/31 07:54:59;;;;;;;61.03;6.97;;;10.20;99.90;;;;;;4964486;28;20114;-79
2023/03/31 07:57:24;;;;;;;61.00;5.90;;;10.10;99.90;;;;;;4981276;28;20502;-77
2023/03/31 07:59:50;;;;;;;58.92;5.78;;;10.10;99.90;;;;;;4984761;28;20057;-81
2023/03/31 08:02:16;;;;;;;50.05;6.78;;;10.10;99.90;;;;;;4967031;28;20034;-79
2023/03/31 08:04:44;;;;;;;59.75;6.57;;;10.20;99.90;;;;;;4965158;28;20035;-79
2023/03/31 08:07:11;;;;;;;50.28;5.88;;;10.20;99.90;;;;;;4984832;28;20554;-79
2023/03/31 08:09:37;;;;;;;46.53;5.68;;;10.30;99.90;;;;;;4984426;28;20030;-77
2023/03/31 08:12:04;;;;;;;46.63;6.47;;;10.30;99.90;;;;;;4968471;28;20042;-78
2023/03/31 08:14:30;;;;;;;54.05;6.82;;;10.40;99.90;;;;;;4964918;28;20798;-79
2023/03/31 08:16:56;;;;;;;44.28;6.07;;;10.50;99.90;;;;;;4965473;28;20041;-78
2023/03/31 08:19:23;;;;;;;48.15;6.85;;;10.60;99.90;;;;;;4951517;28;20054;-79
2023/03/31 08:21:48;;;;;;;39.08;5.28;;;10.60;99.90;;;;;;4984702;28;20042;-78
2023/03/31 08:24:14;;;;;;;42.40;5.00;;;10.70;99.90;;;;;;4959411;28;20080;-79
2023/03/31 08:26:40;;;;;;;45.63;5.82;;;10.70;99.90;;;;;;4971498;28;20151;-77
2023/03/31 08:29:06;;;;;;;48.55;7.03;;;10.90;99.90;;;;;;4979941;28;20065;-79
2023/03/31 08:31:32;;;;;;;36.22;5.38;;;10.90;99.90;;;;;;4980613;28;20061;-80
2023/03/31 08:33:57;;;;;;;45.63;5.25;;;10.90;99.90;;;;;;4977932;28;20525;-80
2023/03/31 08:36:24;;;;;;;39.83;5.93;;;10.90;99.90;;;;;;4978226;28;20110;-80
2023/03/31 08:38:49;;;;;;;44.70;5.68;;;11.00;99.90;;;;;;4959634;28;20034;-81
2023/03/31 08:41:24;;;;;;;45.45;5.57;;;11.10;99.90;;;;;;4974172;28;20443;-79
2023/03/31 08:43:51;;;;;;;43.25;6.05;;;11.00;99.90;;;;;;4978317;28;20023;-80
2023/03/31 08:46:17;;;;;;;44.10;6.40;;;11.00;99.90;;;;;;4987279;28;20113;-79
2023/03/31 08:48:55;;;;;;;50.75;6.28;;;11.20;99.90;;;;;;4987908;28;20110;-78
2023/03/31 08:51:27;;;;;;;29.42;4.47;;;11.30;99.90;;;;;;4988098;28;20057;-79
2023/03/31 08:54:06;;;;;;;38.72;5.32;;;11.50;99.90;;;;;;4987518;28;20074;-78
2023/03/31 08:56:37;;;;;;;33.80;4.53;;;11.60;99.90;;;;;;4987500;28;20022;-79
2023/03/31 08:59:04;;;;;;;41.67;4.97;;;11.50;99.90;;;;;;4968987;28;20058;-81
2023/03/31 09:01:32;;;;;;;39.88;5.05;;;11.40;99.90;;;;;;4975622;28;20027;-78
2023/03/31 09:04:22;;;;;;;36.72;4.53;;;11.50;99.90;;;;;;4982150;28;20029;-78
2023/03/31 09:07:22;;;;;;;35.25;4.90;;;11.40;99.90;;;;;;4983400;28;20034;-79
2023/03/31 09:10:11;;;;;;;33.22;4.38;;;11.50;99.90;;;;;;4983488;28;20030;-80
2023/03/31 09:12:55;;;;;;;37.75;4.85;;;11.40;99.90;;;;;;4967101;28;20054;-79
2023/03/31 09:15:49;;;;;;;36.83;6.10;;;11.40;99.90;;;;;;4977529;28;20069;-80
2023/03/31 09:18:31;;;;;;;46.60;5.55;;;11.30;99.90;;;;;;4975719;28;20112;-80
2023/03/31 09:21:06;;;;;;;31.75;5.82;;;11.20;99.90;;;;;;4978150;28;20023;-79
2023/03/31 09:23:38;;;;;;;43.95;6.38;;;11.10;99.90;;;;;;4976777;28;20049;-79
2023/03/31 09:26:04;;;;;;;35.38;4.82;;;11.10;99.90;;;;;;4631530;28;10000568;-80
2023/03/31 09:28:38;;;;;;;43.08;4.78;;;11.20;99.90;;;;;;4973399;28;20589;-78
2023/03/31 09:31:13;;;;;;;38.50;4.95;;;11.30;99.90;;;;;;4977872;28;20035;-79
2023/03/31 09:33:43;;;;;;;35.28;5.38;;;11.30;99.90;;;;;;4973562;28;20883;-79
2023/03/31 09:36:18;;;;;;;37.78;6.57;;;11.40;99.90;;;;;;4976173;28;20054;-79
2023/03/31 09:38:44;;;;;;;37.30;6.15;;;11.40;99.90;;;;;;4976261;28;20060;-79
2023/03/31 09:41:12;;;;;;;50.67;5.93;;;11.40;99.90;;;;;;4974602;28;20130;-79
2023/03/31 09:43:40;;;;;;;52.83;6.60;;;11.30;99.90;;;;;;4980381;28;20042;-79
2023/03/31 09:46:20;;;;;;;46.45;6.53;;;11.30;99.90;;;;;;4974482;28;20037;-80
2023/03/31 09:48:57;;;;;;;46.33;5.45;;;11.20;99.90;;;;;;4982404;28;20109;-81
2023/03/31 09:51:29;;;;;;;36.25;5.50;;;11.30;99.90;;;;;;4979817;28;20591;-82
2023/03/31 09:54:06;;;;;;;50.03;5.10;;;11.50;99.90;;;;;;4954311;28;20058;-80
2023/03/31 09:56:47;;;;;;;44.22;5.47;;;11.70;99.90;;;;;;4974246;28;20041;-79
2023/03/31 09:59:18;;;;;;;33.20;4.97;;;11.90;99.90;;;;;;4975345;28;20050;-80
2023/03/31 10:01:50;;;;;;;40.13;6.00;;;12.10;99.90;;;;;;4987401;28;20129;-82
2023/03/31 10:04:22;;;;;;;36.40;6.13;;;12.10;99.90;;;;;;4987223;28;20034;-81
2023/03/31 10:06:48;;;;;;;37.55;6.32;;;12.30;99.90;;;;;;4982222;28;20117;-80
2023/03/31 10:09:15;;;;;;;35.90;6.35;;;12.50;99.90;;;;;;4980036;28;20497;-78
2023/03/31 10:12:14;;;;;;;34.42;4.43;;;12.60;99.90;;;;;;4971131;28;20046;-79
2023/03/31 10:14:44;;;;;;;33.00;4.85;;;12.80;99.90;;;;;;4979280;28;20589;-80
2023/03/31 10:17:15;;;;;;;40.42;5.40;;;12.80;99.90;;;;;;4981141;28;20053;-80
2023/03/31 10:19:50;;;;;;;37.67;4.88;;;12.80;99.90;;;;;;4959460;28;20022;-79
2023/03/31 10:22:26;;;;;;;36.53;5.43;;;12.80;99.90;;;;;;4974271;28;20094;-79
2023/03/31 10:24:52;;;;;;;31.63;4.35;;;12.90;99.90;;;;;;4958024;28;20849;-78
2023/03/31 10:27:28;;;;;;;36.83;4.65;;;13.10;99.90;;;;;;4973354;28;20026;-79
2023/03/31 10:29:56;;;;;;;39.72;4.97;;;13.40;99.90;;;;;;4974904;28;20033;-81
2023/03/31 10:32:30;;;;;;;32.97;5.03;;;13.60;99.90;;;;;;4977505;28;20057;-76
2023/03/31 10:35:04;;;;;;;31.63;4.32;;;13.60;99.90;;;;;;4973746;28;20485;-80
2023/03/31 10:37:30;;;;;;;32.63;4.80;;;13.50;99.90;;;;;;4961684;28;20046;-78
2023/03/31 10:40:11;;;;;;;27.52;3.75;;;13.50;99.90;;;;;;4973657;28;20038;-77
2023/03/31 10:42:37;;;;;;;24.60;4.78;;;13.50;99.90;;;;;;4973080;28;20038;-79
2023/03/31 10:45:26;;;;;;;35.42;5.25;;;13.20;99.90;;;;;;4973832;28;20026;-79
2023/03/31 10:47:54;;;;;;;28.13;4.63;;;13.40;99.90;;;;;;4962418;28;20656;-80
2023/03/31 10:50:30;;;;;;;32.72;4.78;;;13.80;99.90;;;;;;4975095;28;20084;-80
2023/03/31 10:53:05;;;;;;;33.78;4.78;;;13.60;99.90;;;;;;4978400;28;20078;-78
2023/03/31 10:55:48;;;;;;;34.88;5.53;;;13.60;99.90;;;;;;4980379;28;20034;-80
2023/03/31 10:58:32;;;;;;;28.88;4.88;;;13.60;99.90;;;;;;4985204;28;20137;-80
2023/03/31 11:01:31;;;;;;;28.23;4.63;;;13.10;99.90;;;;;;4977395;28;20038;-79
2023/03/31 11:04:28;;;;;;;22.40;4.57;;;12.80;99.90;;;;;;4980050;28;20038;-79
2023/03/31 11:07:36;;;;;;;33.38;4.30;;;12.60;99.90;;;;;;4986034;28;20058;-79
2023/03/31 11:10:09;;;;;;;32.03;5.50;;;12.70;99.90;;;;;;4924342;28;20073;-79
2023/03/31 11:12:54;;;;;;;32.75;4.03;;;12.90;99.90;;;;;;4984163;28;20528;-79
2023/03/31 11:15:34;;;;;;;26.38;3.47;;;13.50;99.90;;;;;;4978503;28;20038;-79
2023/03/31 11:18:21;;;;;;;19.10;3.35;;;13.90;99.90;;;;;;4981810;28;20034;-79
2023/03/31 11:20:55;;;;;;;19.35;3.08;;;14.00;99.90;;;;;;4980023;28;20030;-78
2023/03/31 11:23:39;;;;;;;17.08;2.65;;;14.10;99.90;;;;;;4977841;28;20035;-80
2023/03/31 11:26:32;;;;;;;20.92;3.15;;;14.40;99.90;;;;;;4954902;28;20122;-80
2023/03/31 11:29:03;;;;;;;20.35;2.80;;;14.40;99.90;;;;;;4972560;28;20491;-81
2023/03/31 11:31:39;;;;;;;16.95;2.72;;;14.30;99.90;;;;;;4975022;28;20042;-80
2023/03/31 11:34:04;;;;;;;21.42;3.17;;;14.40;99.90;;;;;;4958236;28;20051;-79
2023/03/31 11:36:35;;;;;;;18.48;3.30;;;14.20;99.90;;;;;;4976399;28;20023;-80
2023/03/31 11:39:18;;;;;;;18.95;3.10;;;14.00;99.90;;;;;;4978756;28;20034;-79
2023/03/31 11:41:54;;;;;;;17.40;3.00;;;13.90;99.90;;;;;;4974071;28;20043;-79
2023/03/31 11:44:22;;;;;;;18.52;3.03;;;13.80;99.90;;;;;;4976290;28;20134;-79
2023/03/31 11:47:00;;;;;;;13.85;2.05;;;14.00;99.90;;;;;;4978917;28;20022;-80
2023/03/31 11:49:38;;;;;;;16.25;3.15;;;14.40;99.90;;;;;;4954468;28;20045;-79
2023/03/31 11:52:28;;;;;;;19.88;2.60;;;14.00;99.90;;;;;;4973424;28;20038;-78
2023/03/31 11:55:04;;;;;;;18.88;2.55;;;13.80;99.90;;;;;;4971941;28;20031;-79
2023/03/31 11:57:41;;;;;;;9.48;2.10;;;13.60;99.90;;;;;;4975270;28;20156;-75
2023/03/31 12:00:11;;;;;;;14.30;2.47;;;13.30;99.90;;;;;;4974899;28;20030;-80
2023/03/31 12:02:45;;;;;;;15.50;2.40;;;13.00;99.90;;;;;;4979728;28;20129;-79
2023/03/31 12:05:14;;;;;;;15.02;2.35;;;13.20;99.90;;;;;;4981387;28;20426;-79
2023/03/31 12:08:02;;;;;;;18.60;2.65;;;13.50;99.90;;;;;;4976499;28;20138;-79
2023/03/31 12:10:42;;;;;;;15.60;2.33;;;13.70;99.90;;;;;;4979812;28;20625;-79
2023/03/31 12:13:32;;;;;;;18.77;2.42;;;14.20;99.90;;;;;;4979989;28;20230;-79
2023/03/31 12:16:21;;;;;;;13.23;2.10;;;15.80;99.90;;;;;;4976581;28;20750;-79
2023/03/31 12:19:01;;;;;;;12.70;1.98;;;17.20;99.90;;;;;;4974144;28;20160;-78
2023/03/31 12:21:28;;;;;;;8.70;1.38;;;17.40;99.90;;;;;;4979072;28;20113;-79
2023/03/31 12:23:54;;;;;;;8.30;1.67;;;17.20;99.90;;;;;;4964302;28;20058;-79
2023/03/31 12:26:30;;;;;;;9.05;1.65;;;16.70;99.90;;;;;;4978248;28;20141;-79
2023/03/31 12:28:59;;;;;;;6.28;1.45;;;16.20;99.90;;;;;;4980597;28;20026;-79
2023/03/31 12:31:26;;;;;;;11.38;2.17;;;16.30;99.90;;;;;;4965691;28;20489;-79
2023/03/31 12:34:07;;;;;;;12.32;1.77;;;16.80;99.90;;;;;;4980262;28;20045;-79
2023/03/31 12:36:54;;;;;;;11.82;2.00;;;17.20;99.90;;;;;;4970407;28;20217;-80
2023/03/31 12:39:26;;;;;;;8.38;1.70;;;17.20;99.90;;;;;;4977525;28;20031;-79
2023/03/31 12:42:35;;;;;;;7.03;1.63;;;16.60;99.90;;;;;;4981030;28;20030;-80
2023/03/31 12:45:25;;;;;;;11.30;1.80;;;16.20;99.90;;;;;;4966309;28;20064;-79
2023/03/31 12:48:19;;;;;;;9.70;1.88;;;15.50;99.90;;;;;;4977646;28;20387;-79
2023/03/31 12:51:01;;;;;;;8.90;1.48;;;15.00;99.90;;;;;;4988795;28;20030;-80
2023/03/31 12:53:36;;;;;;;8.52;1.40;;;14.60;99.90;;;;;;4986786;28;20728;-80
2023/03/31 12:56:02;;;;;;;8.95;1.20;;;14.20;99.90;;;;;;4969293;28;20050;-79
2023/03/31 12:58:28;;;;;;;6.15;1.25;;;14.30;99.90;;;;;;4988448;28;20046;-80
2023/03/31 13:01:06;;;;;;;4.75;1.10;;;14.20;99.90;;;;;;4983410;28;20368;-81